Time;durP1;ratioP1;P1;durP2;ratioP2;P2;SDS_P1;SDS_P2;PMS_P1;PMS_P2;Temp;Humidity;BMP_temperature;BMP_pressure;BME280_temperature;BME280_humidity;BME280_pressure;Samples;Min_cycle;Max_cycle;Signal;HPM_P1;HPM_P2
2021/08/09 00:00:42;;;;;;;;;;;;;;;17.18;98.71;98883.91;5059227;28;19912;-63
2021/08/09 00:03:08;;;;;;;;;;;;;;;17.21;96.37;98874.13;5059878;28;19920;-62
2021/08/09 00:05:33;;;;;;;;;;;;;;;17.26;100.00;98881.66;5062124;28;19920;-63
2021/08/09 00:07:59;;;;;;;;;;;;;;;17.83;92.16;98875.53;5061540;28;20364;-63
2021/08/09 00:10:26;;;;;;;;;;;;;;;17.72;93.71;98878.78;5061087;28;20349;-63
2021/08/09 00:12:52;;;;;;;;;;;;;;;17.26;96.11;98886.84;5061356;28;19921;-63
2021/08/09 00:15:17;;;;;;;;;;;;;;;17.40;94.71;98879.03;5058735;28;19920;-63
2021/08/09 00:17:42;;;;;;;;;;;;;;;17.28;98.17;98879.78;5058643;28;20337;-63
2021/08/09 00:20:08;;;;;;;;;;;;;;;17.21;96.70;98875.91;5061990;28;19921;-64
2021/08/09 00:22:33;;;;;;;;;;;;;;;17.44;94.04;98870.09;5061500;28;19917;-64
2021/08/09 00:24:59;;;;;;;;;;;;;;;17.49;96.21;98878.47;5058949;28;20318;-64
2021/08/09 00:27:24;;;;;;;;;;;;;;;17.71;93.29;98871.91;5061139;28;19920;-64
2021/08/09 00:29:49;;;;;;;;;;;;;;;17.49;94.74;98873.28;5040044;28;19913;-64
2021/08/09 00:32:15;;;;;;;;;;;;;;;17.81;92.83;98872.16;5059202;28;19989;-63
2021/08/09 00:34:40;;;;;;;;;;;;;;;17.56;90.38;98869.34;5058366;28;20401;-64
2021/08/09 00:37:05;;;;;;;;;;;;;;;17.22;95.75;98877.56;5060823;28;19920;-63
2021/08/09 00:39:31;;;;;;;;;;;;;;;17.39;95.10;98869.56;5056997;28;20377;-63
2021/08/09 00:41:56;;;;;;;;;;;;;;;17.51;93.96;98873.97;5058895;28;20005;-63
2021/08/09 00:44:21;;;;;;;;;;;;;;;17.11;96.46;98873.84;5061463;28;19919;-63
2021/08/09 00:46:47;;;;;;;;;;;;;;;17.31;91.78;98869.19;5058672;28;19929;-63
2021/08/09 00:49:12;;;;;;;;;;;;;;;17.53;94.12;98868.69;5056755;28;19917;-63
2021/08/09 00:51:38;;;;;;;;;;;;;;;17.31;94.91;98875.25;5062129;28;19921;-63
2021/08/09 00:54:03;;;;;;;;;;;;;;;17.48;93.58;98876.78;5057620;28;20540;-64
2021/08/09 00:56:28;;;;;;;;;;;;;;;17.13;96.59;98887.63;5055990;28;19916;-64
2021/08/09 00:58:56;;;;;;;;;;;;;;;17.05;97.66;98878.59;5054872;28;19920;-64
2021/08/09 01:01:21;;;;;;;;;;;;;;;17.16;98.58;98880.56;5058641;28;19986;-64
2021/08/09 01:03:47;;;;;;;;;;;;;;;17.00;97.38;98875.44;5054732;28;20810;-63
2021/08/09 01:06:13;;;;;;;;;;;;;;;17.32;94.96;98886.50;5054837;28;19917;-64
2021/08/09 01:08:57;;;;;;;;;;;;;;;17.39;93.05;98882.56;5065064;28;19975;-64
2021/08/09 01:11:28;;;;;;;;;;;;;;;17.28;95.63;98891.03;5053645;28;20446;-64
2021/08/09 01:13:54;;;;;;;;;;;;;;;17.27;95.49;98888.53;5057465;28;19923;-63
2021/08/09 01:16:25;;;;;;;;;;;;;;;16.97;93.50;98894.69;5057840;28;20204;-63
2021/08/09 01:18:50;;;;;;;;;;;;;;;17.22;95.89;98895.78;5056418;28;19932;-63
2021/08/09 01:21:16;;;;;;;;;;;;;;;17.50;92.38;98895.75;5055954;28;19921;-63
2021/08/09 01:23:45;;;;;;;;;;;;;;;17.28;94.45;98898.00;5037654;28;19928;-64
2021/08/09 01:26:19;;;;;;;;;;;;;;;17.25;94.53;98895.59;5055769;28;19999;-63
2021/08/09 01:28:45;;;;;;;;;;;;;;;17.32;96.38;98902.09;5053245;28;19924;-63
2021/08/09 01:31:10;;;;;;;;;;;;;;;17.49;91.80;98896.72;5055922;28;19916;-64
2021/08/09 01:33:35;;;;;;;;;;;;;;;17.34;94.16;98895.03;5055556;28;19948;-63
2021/08/09 01:36:01;;;;;;;;;;;;;;;17.52;92.52;98899.09;5039667;28;19917;-63
2021/08/09 01:38:26;;;;;;;;;;;;;;;17.38;93.52;98891.31;5052874;28;19953;-64
2021/08/09 01:40:56;;;;;;;;;;;;;;;17.73;91.26;98901.31;5055634;28;19970;-64
2021/08/09 01:43:22;;;;;;;;;;;;;;;17.50;94.68;98903.56;5055735;28;19962;-64
2021/08/09 01:45:47;;;;;;;;;;;;;;;17.71;89.74;98906.59;5053992;28;20198;-64
2021/08/09 01:48:12;;;;;;;;;;;;;;;17.76;90.25;98911.53;5040456;28;20520;-64
2021/08/09 01:50:38;;;;;;;;;;;;;;;17.45;94.60;98912.63;5055777;28;20427;-64
2021/08/09 01:53:04;;;;;;;;;;;;;;;17.98;88.47;98908.44;5038852;28;19921;-64
2021/08/09 01:55:30;;;;;;;;;;;;;;;17.86;90.56;98907.44;5058177;28;19962;-64
2021/08/09 01:57:55;;;;;;;;;;;;;;;17.63;93.58;98902.78;5055575;28;20263;-63
2021/08/09 02:00:20;;;;;;;;;;;;;;;17.30;97.38;98904.78;5052879;28;19917;-63
2021/08/09 02:02:48;;;;;;;;;;;;;;;17.57;93.98;98906.63;5055039;28;20015;-63
2021/08/09 02:05:14;;;;;;;;;;;;;;;17.42;93.68;98916.22;5057212;28;19921;-64
2021/08/09 02:07:40;;;;;;;;;;;;;;;17.59;91.46;98909.97;5057040;28;19932;-64
2021/08/09 02:10:06;;;;;;;;;;;;;;;17.53;91.95;98920.78;5058660;28;20019;-63
2021/08/09 02:12:31;;;;;;;;;;;;;;;17.74;88.23;98918.59;5055566;28;19924;-64
2021/08/09 02:14:57;;;;;;;;;;;;;;;18.05;85.59;98921.91;5058260;28;19935;-63
2021/08/09 02:17:35;;;;;;;;;;;;;;;16.98;95.93;98911.13;5038821;28;20274;-63
2021/08/09 02:20:06;;;;;;;;;;;;;;;17.14;94.34;98919.66;5056819;28;20294;-64
2021/08/09 02:22:31;;;;;;;;;;;;;;;17.59;90.15;98909.16;5055332;28;20113;-63
2021/08/09 02:25:00;;;;;;;;;;;;;;;17.30;90.85;98919.59;5057381;28;19920;-63
2021/08/09 02:27:26;;;;;;;;;;;;;;;17.51;91.90;98907.84;5059057;28;19924;-64
2021/08/09 02:29:52;;;;;;;;;;;;;;;17.32;92.58;98902.94;5060068;28;19912;-63
2021/08/09 02:32:17;;;;;;;;;;;;;;;17.68;86.94;98909.41;5054527;28;20340;-64
2021/08/09 02:34:43;;;;;;;;;;;;;;;17.50;89.62;98916.59;5062311;28;20351;-64
2021/08/09 02:37:08;;;;;;;;;;;;;;;17.13;94.33;98913.63;5055953;28;19969;-64
2021/08/09 02:39:34;;;;;;;;;;;;;;;17.09;92.86;98909.53;5057919;28;20175;-63
2021/08/09 02:41:59;;;;;;;;;;;;;;;16.88;97.10;98913.44;5055677;28;20317;-64
2021/08/09 02:44:25;;;;;;;;;;;;;;;16.98;93.77;98918.91;5054207;28;19921;-64
2021/08/09 02:46:50;;;;;;;;;;;;;;;17.27;91.55;98915.41;5057627;28;19928;-64
2021/08/09 02:49:16;;;;;;;;;;;;;;;17.25;92.13;98919.03;5056029;28;19923;-62
2021/08/09 02:51:41;;;;;;;;;;;;;;;17.44;91.35;98922.16;5054884;28;19995;-63
2021/08/09 02:54:06;;;;;;;;;;;;;;;17.48;87.65;98913.25;5055303;28;20429;-64
2021/08/09 02:56:32;;;;;;;;;;;;;;;17.25;93.62;98917.25;5054776;28;19997;-64
2021/08/09 02:58:57;;;;;;;;;;;;;;;16.95;95.87;98912.13;5052828;28;19924;-64
2021/08/09 03:01:23;;;;;;;;;;;;;;;16.95;93.44;98909.53;5058167;28;19932;-64
2021/08/09 03:03:50;;;;;;;;;;;;;;;17.02;93.78;98905.63;5055365;28;19928;-64
2021/08/09 03:06:16;;;;;;;;;;;;;;;17.11;91.13;98910.28;5057515;28;19928;-64
2021/08/09 03:08:41;;;;;;;;;;;;;;;16.92;93.67;98914.91;5056728;28;19917;-64
2021/08/09 03:11:07;;;;;;;;;;;;;;;16.79;96.62;98908.75;5054902;28;19927;-64
2021/08/09 03:13:33;;;;;;;;;;;;;;;16.92;94.13;98914.91;5058744;28;20001;-64
2021/08/09 03:15:58;;;;;;;;;;;;;;;16.82;95.91;98914.63;5044800;28;20007;-64
2021/08/09 03:18:24;;;;;;;;;;;;;;;16.64;94.24;98921.69;5059048;28;19916;-64
2021/08/09 03:20:49;;;;;;;;;;;;;;;16.65;98.60;98919.94;5061708;28;19965;-64
2021/08/09 03:23:14;;;;;;;;;;;;;;;16.63;97.93;98920.03;5060981;28;19916;-64
2021/08/09 03:25:40;;;;;;;;;;;;;;;16.85;96.20;98924.00;5060420;28;20363;-64
2021/08/09 03:28:06;;;;;;;;;;;;;;;16.85;93.42;98929.22;5059100;28;19921;-63
2021/08/09 03:30:31;;;;;;;;;;;;;;;16.96;94.84;98932.00;5057961;28;19919;-65
2021/08/09 03:32:56;;;;;;;;;;;;;;;16.71;94.66;98928.22;5056863;28;20312;-64
2021/08/09 03:35:22;;;;;;;;;;;;;;;16.72;95.06;98929.91;5062319;28;20003;-64
2021/08/09 03:37:47;;;;;;;;;;;;;;;16.62;97.71;98928.75;5057223;28;19928;-64
2021/08/09 03:40:13;;;;;;;;;;;;;;;16.96;96.32;98926.81;5060023;28;19917;-64
2021/08/09 03:42:38;;;;;;;;;;;;;;;17.27;94.51;98932.78;5056940;28;20410;-64
2021/08/09 03:45:04;;;;;;;;;;;;;;;17.04;92.58;98932.41;5053580;28;19916;-64
2021/08/09 03:47:29;;;;;;;;;;;;;;;16.94;93.38;98936.47;5059277;28;19999;-63
2021/08/09 03:49:55;;;;;;;;;;;;;;;16.75;96.09;98933.25;5057209;28;20003;-64
2021/08/09 03:52:20;;;;;;;;;;;;;;;16.84;96.99;98935.34;5057741;28;19912;-64
2021/08/09 03:54:46;;;;;;;;;;;;;;;16.84;94.35;98935.34;5060470;28;19917;-64
2021/08/09 03:57:11;;;;;;;;;;;;;;;16.76;96.73;98929.72;5056916;28;19917;-63
2021/08/09 03:59:36;;;;;;;;;;;;;;;16.67;96.24;98931.94;5061805;28;19917;-64
2021/08/09 04:02:02;;;;;;;;;;;;;;;16.55;99.83;98927.44;5063084;28;20293;-64
2021/08/09 04:04:27;;;;;;;;;;;;;;;17.18;95.32;98930.75;5055011;28;20009;-64
2021/08/09 04:06:52;;;;;;;;;;;;;;;17.40;91.42;98941.50;5057074;28;19943;-64
2021/08/09 04:09:18;;;;;;;;;;;;;;;17.25;88.44;98945.88;5061828;28;19920;-64
2021/08/09 04:11:43;;;;;;;;;;;;;;;17.40;94.10;98951.91;5057988;28;19917;-64
2021/08/09 04:14:08;;;;;;;;;;;;;;;17.83;89.15;98949.31;5057662;28;19930;-64
2021/08/09 04:16:34;;;;;;;;;;;;;;;17.69;85.56;98941.50;5061769;28;20365;-64
2021/08/09 04:18:59;;;;;;;;;;;;;;;17.81;82.13;98942.50;5059011;28;19917;-64
2021/08/09 04:21:25;;;;;;;;;;;;;;;17.63;86.36;98941.84;5059860;28;19913;-64
2021/08/09 04:23:50;;;;;;;;;;;;;;;17.60;84.01;98942.06;5060573;28;19967;-64
2021/08/09 04:26:16;;;;;;;;;;;;;;;17.44;89.70;98949.97;5059897;28;19931;-64
2021/08/09 04:28:42;;;;;;;;;;;;;;;17.63;88.07;98947.06;5054933;28;19931;-64
2021/08/09 04:31:07;;;;;;;;;;;;;;;17.55;87.91;98950.97;5056452;28;19917;-64
2021/08/09 04:33:39;;;;;;;;;;;;;;;17.55;91.42;98948.38;5050554;28;19925;-64
2021/08/09 04:36:04;;;;;;;;;;;;;;;17.35;93.49;98949.59;5061864;28;19923;-64
2021/08/09 04:38:30;;;;;;;;;;;;;;;17.27;93.37;98951.84;5060822;28;19913;-64
2021/08/09 04:40:55;;;;;;;;;;;;;;;17.02;89.49;98936.84;5062169;28;19986;-64
2021/08/09 04:43:20;;;;;;;;;;;;;;;17.27;91.66;98940.59;5059301;28;20281;-64
2021/08/09 04:45:56;;;;;;;;;;;;;;;17.40;89.32;98944.09;5062981;28;19912;-64
2021/08/09 04:48:22;;;;;;;;;;;;;;;17.11;88.59;98941.50;5054766;28;19916;-63
2021/08/09 04:50:47;;;;;;;;;;;;;;;17.39;91.82;98947.66;5058102;28;20385;-63
2021/08/09 04:53:12;;;;;;;;;;;;;;;16.75;92.91;98943.66;5061549;28;19971;-63
2021/08/09 04:55:37;;;;;;;;;;;;;;;17.25;91.82;98940.69;5056616;28;19962;-64
2021/08/09 04:58:04;;;;;;;;;;;;;;;16.85;91.02;98944.81;5057861;28;19912;-63
2021/08/09 05:00:29;;;;;;;;;;;;;;;17.16;92.71;98943.00;5042023;28;19916;-64
2021/08/09 05:02:54;;;;;;;;;;;;;;;16.80;97.55;98941.66;5038370;28;19968;-64
2021/08/09 05:05:20;;;;;;;;;;;;;;;17.32;87.51;98948.97;5056492;28;19964;-64
2021/08/09 05:07:47;;;;;;;;;;;;;;;17.41;91.84;98943.19;5056766;28;19928;-64
2021/08/09 05:10:12;;;;;;;;;;;;;;;17.42;87.74;98942.25;5057529;28;19999;-64
2021/08/09 05:12:37;;;;;;;;;;;;;;;17.24;93.00;98940.75;5059135;28;20003;-64
2021/08/09 05:15:04;;;;;;;;;;;;;;;17.43;88.03;98936.13;5063634;28;19912;-64
2021/08/09 05:17:29;;;;;;;;;;;;;;;17.38;88.92;98942.53;5060524;28;19923;-64
2021/08/09 05:19:55;;;;;;;;;;;;;;;17.56;87.56;98949.22;5058121;28;20368;-64
2021/08/09 05:22:20;;;;;;;;;;;;;;;17.27;88.80;98945.81;5056843;28;19913;-64
2021/08/09 05:24:45;;;;;;;;;;;;;;;17.54;87.55;98961.50;5059040;28;19917;-63
2021/08/09 05:27:11;;;;;;;;;;;;;;;17.38;91.25;98958.16;5053847;28;19920;-63
2021/08/09 05:29:36;;;;;;;;;;;;;;;17.32;91.01;98954.16;5055376;28;19917;-64
2021/08/09 05:32:01;;;;;;;;;;;;;;;17.56;86.41;98954.41;5059104;28;20293;-63
2021/08/09 05:34:26;;;;;;;;;;;;;;;17.54;88.73;98959.75;5059945;28;19913;-64
2021/08/09 05:36:52;;;;;;;;;;;;;;;17.70;91.38;98958.81;5058631;28;19921;-64
2021/08/09 05:39:17;;;;;;;;;;;;;;;17.61;85.30;98961.94;5058582;28;20278;-63
2021/08/09 05:41:42;;;;;;;;;;;;;;;17.84;85.88;98956.19;5057955;28;19917;-63
2021/08/09 05:44:08;;;;;;;;;;;;;;;17.74;87.87;98958.53;5056143;28;19936;-64
2021/08/09 05:46:33;;;;;;;;;;;;;;;17.94;88.97;98961.66;5060032;28;20289;-63
2021/08/09 05:48:58;;;;;;;;;;;;;;;17.87;87.83;98956.00;5057672;28;19917;-64
2021/08/09 05:51:24;;;;;;;;;;;;;;;18.01;88.36;98967.31;5060624;28;19912;-64
2021/08/09 05:53:49;;;;;;;;;;;;;;;17.94;90.99;98967.69;5061562;28;20006;-63
2021/08/09 05:56:14;;;;;;;;;;;;;;;17.86;87.26;98976.94;5060269;28;19965;-64
2021/08/09 05:58:40;;;;;;;;;;;;;;;18.01;88.68;98975.13;5056738;28;20389;-63
2021/08/09 06:01:05;;;;;;;;;;;;;;;18.30;86.31;98974.13;5056994;28;19917;-63
2021/08/09 06:03:31;;;;;;;;;;;;;;;18.34;83.51;98980.81;5061620;28;19919;-63
2021/08/09 06:05:56;;;;;;;;;;;;;;;18.33;83.90;98976.53;5059599;28;19916;-64
2021/08/09 06:08:21;;;;;;;;;;;;;;;18.42;88.91;98982.09;5059757;28;20011;-63
2021/08/09 06:10:47;;;;;;;;;;;;;;;19.01;82.96;98990.41;5057386;28;20409;-63
2021/08/09 06:13:13;;;;;;;;;;;;;;;19.14;80.20;98991.25;5058721;28;20419;-64
2021/08/09 06:15:38;;;;;;;;;;;;;;;19.50;84.51;98994.06;5057012;28;20279;-63
2021/08/09 06:18:03;;;;;;;;;;;;;;;18.86;85.36;98989.66;5041341;28;19919;-64
2021/08/09 06:20:29;;;;;;;;;;;;;;;19.02;83.76;98992.91;5058170;28;19920;-64
2021/08/09 06:22:56;;;;;;;;;;;;;;;19.47;81.79;99000.34;5059922;28;20374;-63
2021/08/09 06:25:22;;;;;;;;;;;;;;;18.91;85.50;98994.56;5059403;28;20572;-64
2021/08/09 06:27:47;;;;;;;;;;;;;;;19.31;86.39;98991.88;5058608;28;19920;-63
2021/08/09 06:30:13;;;;;;;;;;;;;;;19.90;81.09;98996.56;5058581;28;19921;-63
2021/08/09 06:32:38;;;;;;;;;;;;;;;18.98;86.60;99001.06;5060968;28;19921;-63
2021/08/09 06:35:04;;;;;;;;;;;;;;;19.17;84.65;98993.66;5051983;28;19913;-61
2021/08/09 06:37:29;;;;;;;;;;;;;;;19.81;79.56;98988.41;5055572;28;20496;-63
2021/08/09 06:39:54;;;;;;;;;;;;;;;19.86;77.22;98982.84;5054853;28;19917;-64
2021/08/09 06:42:20;;;;;;;;;;;;;;;19.57;80.11;98993.53;5058021;28;19920;-64
2021/08/09 06:44:45;;;;;;;;;;;;;;;19.10;85.62;98988.94;5039538;28;20579;-64
2021/08/09 06:47:11;;;;;;;;;;;;;;;19.57;81.03;98983.09;5056473;28;20315;-63
2021/08/09 06:49:36;;;;;;;;;;;;;;;19.60;79.37;98982.88;5057085;28;19940;-64
2021/08/09 06:52:01;;;;;;;;;;;;;;;19.84;77.56;98980.38;5060664;28;20022;-64
2021/08/09 06:54:27;;;;;;;;;;;;;;;19.90;77.62;98979.09;5062352;28;19920;-64
2021/08/09 06:56:52;;;;;;;;;;;;;;;19.60;79.61;98969.81;5063082;28;20354;-64
2021/08/09 06:59:18;;;;;;;;;;;;;;;19.56;78.46;98973.56;5057596;28;19916;-63
2021/08/09 07:01:43;;;;;;;;;;;;;;;19.91;75.01;98977.31;5058510;28;19917;-64
2021/08/09 07:04:09;;;;;;;;;;;;;;;20.20;74.48;98977.84;5059838;28;19952;-62
2021/08/09 07:06:34;;;;;;;;;;;;;;;20.33;76.41;98983.84;5063382;28;19913;-64
2021/08/09 07:09:02;;;;;;;;;;;;;;;20.26;74.99;98990.47;5060853;28;19956;-64
2021/08/09 07:11:28;;;;;;;;;;;;;;;20.12;76.30;98988.03;5062443;28;19978;-64
2021/08/09 07:13:53;;;;;;;;;;;;;;;20.05;75.23;99003.31;5063837;28;19963;-64
2021/08/09 07:16:23;;;;;;;;;;;;;;;20.16;77.60;99000.78;5061135;28;20600;-64
2021/08/09 07:18:48;;;;;;;;;;;;;;;20.10;76.70;99009.03;5061032;28;20410;-64
2021/08/09 07:21:14;;;;;;;;;;;;;;;20.29;75.86;99005.94;5063752;28;19912;-64
2021/08/09 07:23:39;;;;;;;;;;;;;;;20.39;74.37;99017.41;5063278;28;19916;-64
2021/08/09 07:26:05;;;;;;;;;;;;;;;20.36;75.05;99012.38;5063810;28;19912;-63
2021/08/09 07:28:30;;;;;;;;;;;;;;;19.78;78.08;99012.16;5061732;28;19931;-62
2021/08/09 07:30:55;;;;;;;;;;;;;;;20.25;76.04;99001.88;5066318;28;19999;-62
2021/08/09 07:33:20;;;;;;;;;;;;;;;20.68;72.72;99001.38;5062772;28;19912;-62
2021/08/09 07:35:46;;;;;;;;;;;;;;;20.04;77.85;99012.09;5062044;28;19912;-63
2021/08/09 07:38:11;;;;;;;;;;;;;;;20.13;76.84;99010.59;5060999;28;20328;-64
2021/08/09 07:40:37;;;;;;;;;;;;;;;20.55;73.63;99008.44;5060758;28;19943;-64
2021/08/09 07:43:02;;;;;;;;;;;;;;;20.36;74.42;99006.34;5061500;28;19934;-63
2021/08/09 07:45:28;;;;;;;;;;;;;;;20.35;73.41;99002.06;5062017;28;19916;-64
2021/08/09 07:47:53;;;;;;;;;;;;;;;20.36;74.35;99007.16;5061463;28;20034;-64
2021/08/09 07:50:21;;;;;;;;;;;;;;;20.50;72.20;99008.78;5062880;28;19942;-63
2021/08/09 07:52:47;;;;;;;;;;;;;;;20.35;75.04;99010.75;5061021;28;19912;-63
2021/08/09 07:55:12;;;;;;;;;;;;;;;20.32;73.00;99010.97;5063493;28;20412;-63
2021/08/09 07:57:38;;;;;;;;;;;;;;;20.39;73.94;99020.03;5064792;28;19948;-64
2021/08/09 08:00:03;;;;;;;;;;;;;;;20.32;73.79;99016.19;5062564;28;20384;-63
2021/08/09 08:02:29;;;;;;;;;;;;;;;20.34;74.98;99014.28;5063815;28;19966;-64
2021/08/09 08:04:54;;;;;;;;;;;;;;;20.52;73.42;99022.59;5063690;28;19925;-64
2021/08/09 08:07:20;;;;;;;;;;;;;;;20.70;75.00;99009.97;5060679;28;20008;-63
2021/08/09 08:09:45;;;;;;;;;;;;;;;20.63;73.19;99020.06;5063966;28;19917;-63
2021/08/09 08:12:10;;;;;;;;;;;;;;;20.69;73.79;99021.41;5059669;28;19923;-63
2021/08/09 08:14:36;;;;;;;;;;;;;;;20.77;72.87;99020.81;5062989;28;20778;-63
2021/08/09 08:17:01;;;;;;;;;;;;;;;21.03;70.60;99017.09;5062109;28;19951;-63
2021/08/09 08:19:26;;;;;;;;;;;;;;;20.75;72.69;99018.31;5062217;28;19961;-63
2021/08/09 08:21:52;;;;;;;;;;;;;;;21.27;69.14;99014.41;5061814;28;20367;-63
2021/08/09 08:24:17;;;;;;;;;;;;;;;20.84;74.24;99017.63;5062932;28;19921;-63
2021/08/09 08:26:42;;;;;;;;;;;;;;;21.52;70.15;99028.28;5063754;28;19927;-63
2021/08/09 08:29:08;;;;;;;;;;;;;;;21.17;70.02;99023.94;5060389;28;19917;-63
2021/08/09 08:31:33;;;;;;;;;;;;;;;21.29;71.09;99022.97;5062725;28;19916;-63
2021/08/09 08:33:58;;;;;;;;;;;;;;;21.80;69.45;99019.09;5060536;28;20271;-63
2021/08/09 08:36:24;;;;;;;;;;;;;;;21.97;69.24;99019.59;5063119;28;19999;-63
2021/08/09 08:38:49;;;;;;;;;;;;;;;22.11;66.61;99025.41;5059705;28;20496;-63
2021/08/09 08:41:15;;;;;;;;;;;;;;;22.25;65.33;99026.13;5063225;28;19955;-63
2021/08/09 08:43:41;;;;;;;;;;;;;;;21.55;68.61;99027.22;5061303;28;20625;-63
2021/08/09 08:46:07;;;;;;;;;;;;;;;22.66;62.01;99020.16;5061546;28;20050;-63
2021/08/09 08:48:33;;;;;;;;;;;;;;;22.58;65.34;99019.09;5062486;28;19920;-63
2021/08/09 08:51:00;;;;;;;;;;;;;;;22.57;63.84;99017.44;5061797;28;19920;-63
2021/08/09 08:53:26;;;;;;;;;;;;;;;22.11;67.49;99022.78;5062237;28;20293;-63
2021/08/09 08:55:52;;;;;;;;;;;;;;;22.07;64.50;99021.34;5044053;28;19974;-63
2021/08/09 08:58:17;;;;;;;;;;;;;;;22.38;66.23;99013.69;5060429;28;19916;-63
2021/08/09 09:00:43;;;;;;;;;;;;;;;23.13;64.35;99014.59;5059966;28;19913;-63
2021/08/09 09:03:22;;;;;;;;;;;;;;;23.89;58.00;99015.13;5062078;28;20606;-64
2021/08/09 09:05:59;;;;;;;;;;;;;;;24.04;57.81;99022.63;5053709;28;19994;-64
2021/08/09 09:08:43;;;;;;;;;;;;;;;24.72;54.15;99012.22;5061157;28;20337;-64
2021/08/09 09:11:12;;;;;;;;;;;;;;;23.82;57.00;99018.44;5061539;28;20267;-63
2021/08/09 09:13:56;;;;;;;;;;;;;;;24.11;57.15;99024.59;5059298;28;20404;-64
2021/08/09 09:16:22;;;;;;;;;;;;;;;24.43;56.62;99015.66;5044581;28;20000;-63
2021/08/09 09:18:48;;;;;;;;;;;;;;;25.01;55.10;99013.03;5059893;28;19968;-64
2021/08/09 09:21:23;;;;;;;;;;;;;;;24.41;57.44;99020.22;5061832;28;19923;-64
2021/08/09 09:23:49;;;;;;;;;;;;;;;25.13;50.95;99020.78;5057049;28;19917;-63
2021/08/09 09:26:18;;;;;;;;;;;;;;;25.41;52.97;99017.28;5058513;28;19913;-64
2021/08/09 09:28:43;;;;;;;;;;;;;;;24.97;55.88;99022.19;5057865;28;19937;-62
2021/08/09 09:31:13;;;;;;;;;;;;;;;23.99;59.36;99025.66;5059582;28;20441;-63
2021/08/09 09:33:45;;;;;;;;;;;;;;;25.33;55.88;99016.34;5054456;28;19917;-65
2021/08/09 09:36:10;;;;;;;;;;;;;;;26.18;52.14;99020.56;5061262;28;19916;-63
2021/08/09 09:38:42;;;;;;;;;;;;;;;25.86;52.43;99016.56;5059248;28;20256;-63
2021/08/09 09:41:08;;;;;;;;;;;;;;;25.70;51.99;99008.41;5059633;28;19948;-63
2021/08/09 09:43:43;;;;;;;;;;;;;;;25.18;56.19;99013.28;5061464;28;19924;-63
2021/08/09 09:46:21;;;;;;;;;;;;;;;25.74;51.25;99009.78;5061290;28;19912;-63
2021/08/09 09:48:47;;;;;;;;;;;;;;;25.43;51.02;99012.69;5057909;28;19943;-63
2021/08/09 09:51:13;;;;;;;;;;;;;;;25.25;50.57;99009.16;5059434;28;19916;-63
2021/08/09 09:53:39;;;;;;;;;;;;;;;26.14;48.71;99016.56;5056960;28;20306;-63
2021/08/09 09:56:04;;;;;;;;;;;;;;;26.61;45.05;99011.13;5057136;28;19912;-63
2021/08/09 09:58:30;;;;;;;;;;;;;;;25.19;47.79;99014.97;5050978;28;19915;-63
2021/08/09 10:00:57;;;;;;;;;;;;;;;25.77;48.16;99020.06;5062114;28;19919;-61
2021/08/09 10:03:22;;;;;;;;;;;;;;;26.42;49.68;99009.44;5062055;28;19920;-63
2021/08/09 10:05:48;;;;;;;;;;;;;;;26.89;46.02;99016.28;5059213;28;19920;-63
2021/08/09 10:08:14;;;;;;;;;;;;;;;27.07;44.59;99019.78;5056267;28;19921;-63
2021/08/09 10:10:40;;;;;;;;;;;;;;;26.49;44.05;99010.47;5057700;28;19994;-63
2021/08/09 10:13:06;;;;;;;;;;;;;;;26.31;46.12;99017.56;5060616;28;20176;-61
2021/08/09 10:15:31;;;;;;;;;;;;;;;25.85;45.44;99019.34;5060666;28;20628;-63
2021/08/09 10:17:56;;;;;;;;;;;;;;;27.24;43.45;99023.38;5056380;28;19916;-64
2021/08/09 10:20:22;;;;;;;;;;;;;;;25.87;45.50;99023.50;5054715;28;19916;-63
2021/08/09 10:23:14;;;;;;;;;;;;;;;24.66;47.11;99023.34;5057962;28;19923;-63
2021/08/09 10:25:50;;;;;;;;;;;;;;;25.55;45.25;99025.72;5055622;28;20374;-63
2021/08/09 10:28:16;;;;;;;;;;;;;;;26.65;42.71;99020.41;5059757;28;20456;-63
2021/08/09 10:30:41;;;;;;;;;;;;;;;24.43;52.86;99028.81;5049181;28;19963;-60
2021/08/09 10:33:10;;;;;;;;;;;;;;;26.08;45.97;99025.91;5026360;28;19916;-60
2021/08/09 10:35:39;;;;;;;;;;;;;;;26.03;47.97;99025.53;5042552;28;19916;-59
2021/08/09 10:38:15;;;;;;;;;;;;;;;25.01;47.12;99017.47;5042017;28;19916;-61
2021/08/09 10:40:42;;;;;;;;;;;;;;;25.76;46.04;99014.94;5026117;28;19921;-62
2021/08/09 10:43:07;;;;;;;;;;;;;;;25.43;44.61;99023.25;5052452;28;19923;-61
2021/08/09 10:45:40;;;;;;;;;;;;;;;23.90;47.57;99024.69;5053230;28;20542;-61
2021/08/09 10:48:10;;;;;;;;;;;;;;;25.34;48.64;99025.88;5051715;28;19925;-61
2021/08/09 10:50:41;;;;;;;;;;;;;;;25.83;43.45;99030.03;5042448;28;19926;-61
2021/08/09 10:53:28;;;;;;;;;;;;;;;25.01;45.54;99031.47;5049125;28;20286;-61
2021/08/09 10:55:54;;;;;;;;;;;;;;;25.53;43.97;99032.94;5039460;28;19923;-61
2021/08/09 10:58:58;;;;;;;;;;;;;;;24.96;50.07;99033.69;5047696;28;20015;-61
2021/08/09 11:01:24;;;;;;;;;;;;;;;26.13;46.79;99024.63;5009168;28;19967;-60
2021/08/09 11:04:02;;;;;;;;;;;;;;;25.94;45.96;99025.56;4992331;28;19933;-60
2021/08/09 11:06:39;;;;;;;;;;;;;;;27.17;46.12;99018.84;5037654;28;19913;-61
2021/08/09 11:12:23;;;;;;;;;;;;;;;26.41;48.65;99028.91;5045378;28;19924;-58
2021/08/09 11:14:58;;;;;;;;;;;;;;;26.27;43.61;99032.91;5042776;28;19917;-57
2021/08/09 11:17:23;;;;;;;;;;;;;;;26.25;46.61;99034.00;5041798;28;19942;-58
2021/08/09 11:19:49;;;;;;;;;;;;;;;26.19;47.70;99029.34;5048885;28;19924;-58
2021/08/09 11:22:17;;;;;;;;;;;;;;;26.37;47.84;99037.28;5048600;28;19924;-59
2021/08/09 11:24:43;;;;;;;;;;;;;;;27.29;45.25;99041.41;5053942;28;19952;-60
2021/08/09 11:27:09;;;;;;;;;;;;;;;25.33;47.61;99043.53;5052328;28;20398;-60
2021/08/09 11:29:50;;;;;;;;;;;;;;;24.47;46.16;99048.66;5054676;28;19920;-61
2021/08/09 11:32:16;;;;;;;;;;;;;;;23.65;49.08;99054.88;5045741;28;20409;-61
2021/08/09 11:35:00;;;;;;;;;;;;;;;23.82;49.80;99055.25;5051635;28;19917;-61
2021/08/09 11:37:25;;;;;;;;;;;;;;;23.80;49.39;99055.38;5055283;28;20011;-61
2021/08/09 11:39:51;;;;;;;;;;;;;;;22.76;52.65;99049.09;5018707;28;20053;-61
2021/08/09 11:42:16;;;;;;;;;;;;;;;24.00;48.50;99058.91;5055665;28;19917;-61
2021/08/09 11:44:42;;;;;;;;;;;;;;;22.73;54.86;99058.06;5055587;28;19963;-61
2021/08/09 11:47:07;;;;;;;;;;;;;;;23.20;50.71;99052.53;5056075;28;20336;-61
2021/08/09 11:49:32;;;;;;;;;;;;;;;23.42;50.95;99048.09;5037958;28;20425;-61
2021/08/09 11:51:59;;;;;;;;;;;;;;;23.09;53.31;99048.16;5059765;28;20033;-61
2021/08/09 11:54:36;;;;;;;;;;;;;;;22.55;55.68;99049.06;5058757;28;20011;-61
2021/08/09 11:57:02;;;;;;;;;;;;;;;23.01;53.30;99053.19;5052494;28;19936;-61
2021/08/09 11:59:27;;;;;;;;;;;;;;;23.56;53.98;99042.47;5057373;28;19920;-61
2021/08/09 12:01:53;;;;;;;;;;;;;;;24.08;53.76;99045.91;5057542;28;20007;-61
2021/08/09 12:04:19;;;;;;;;;;;;;;;25.08;52.49;99034.38;5026786;28;19929;-61
2021/08/09 12:06:49;;;;;;;;;;;;;;;25.92;51.25;99030.16;5057808;28;19999;-61
2021/08/09 12:09:17;;;;;;;;;;;;;;;25.43;46.04;99032.94;5056526;28;19931;-61
2021/08/09 12:11:42;;;;;;;;;;;;;;;26.03;48.02;99035.25;5054244;28;19920;-61
2021/08/09 12:14:08;;;;;;;;;;;;;;;26.53;44.74;99032.16;5049699;28;20790;-61
2021/08/09 12:16:50;;;;;;;;;;;;;;;24.28;49.78;99038.91;5046359;28;19917;-61
2021/08/09 12:19:18;;;;;;;;;;;;;;;24.13;49.42;99033.19;5055233;28;20371;-61
2021/08/09 12:21:43;;;;;;;;;;;;;;;25.77;49.34;99033.25;5056901;28;19963;-61
2021/08/09 12:24:16;;;;;;;;;;;;;;;25.66;46.10;99036.09;5057187;28;19955;-61
2021/08/09 12:26:42;;;;;;;;;;;;;;;25.88;45.30;99038.34;5055854;28;19996;-62
2021/08/09 12:29:14;;;;;;;;;;;;;;;26.09;43.93;99029.38;5056604;28;20047;-61
2021/08/09 12:31:40;;;;;;;;;;;;;;;25.38;45.13;99030.72;5060204;28;20637;-62
2021/08/09 12:34:09;;;;;;;;;;;;;;;26.60;43.64;99027.13;5060580;28;19916;-62
2021/08/09 12:36:35;;;;;;;;;;;;;;;27.23;45.09;99024.38;5064446;28;19917;-62
2021/08/09 12:39:01;;;;;;;;;;;;;;;27.44;44.46;99026.66;5060576;28;19913;-62
2021/08/09 12:41:29;;;;;;;;;;;;;;;28.55;45.08;99021.28;5042331;28;19912;-62
2021/08/09 12:43:55;;;;;;;;;;;;;;;28.22;41.42;99028.31;5057692;28;20392;-62
2021/08/09 12:46:20;;;;;;;;;;;;;;;28.52;42.06;99026.91;5058635;28;20007;-62
2021/08/09 12:48:47;;;;;;;;;;;;;;;28.78;39.93;99021.47;5057946;28;20004;-62